Terminal Aerodrome Forecast
Issued by NWS

Home | Current Version | Previous Version | Text Only | Print | Product List | Glossary On
Versions: 1 2 3 4 5 6 7 8 9 10 11 12 13 14
000
FTUS45 KREV 181700
TAFRNO
TAF
KRNO 181720Z 1818/1918 VRB04KT P6SM FEW040 SCT120 SCT180
     FM182200 31009KT P6SM VCSH SCT060 BKN100
     FM190500 VRB03KT P6SM SCT060=

USA.gov is the U.S. government's official web portal to all federal, state and local government web resources and services.